Time;durP1;ratioP1;P1;durP2;ratioP2;P2;SDS_P1;SDS_P2;PMS_P1;PMS_P2;Temp;Humidity;BMP_temperature;BMP_pressure;BME280_temperature;BME280_humidity;BME280_pressure;Samples;Min_cycle;Max_cycle;Signal;HPM_P1;HPM_P2
2021/06/22 00:00:02;;;;;;;1.52;0.80;;;;;;;;;;346515;28;1939;-70
2021/06/22 00:00:15;;;;;;;1.10;0.80;;;;;;;;;;346491;28;1241;-68
2021/06/22 00:00:30;;;;;;;1.48;0.70;;;;;;;;;;346374;28;1106;-69
2021/06/22 00:00:42;;;;;;;1.85;0.80;;;;;;;;;;345399;28;16651;-69
2021/06/22 00:00:54;;;;;;;1.55;0.80;;;;;;;;;;346042;28;1465;-69
2021/06/22 00:01:06;;;;;;;1.40;0.82;;;;;;;;;;345385;28;1063;-69
2021/06/22 00:01:19;;;;;;;1.20;0.70;;;;;;;;;;346233;28;1178;-69
2021/06/22 00:01:31;;;;;;;1.10;0.70;;;;;;;;;;346371;28;1262;-69
2021/06/22 00:01:43;;;;;;;1.30;0.80;;;;;;;;;;347875;28;1086;-69
2021/06/22 00:01:55;;;;;;;2.53;0.80;;;;;;;;;;347842;28;1034;-69
2021/06/22 00:02:07;;;;;;;3.08;0.80;;;;;;;;;;347876;28;1206;-69
2021/06/22 00:02:19;;;;;;;3.10;0.90;;;;;;;;;;347843;28;1066;-70
2021/06/22 00:02:32;;;;;;;2.40;0.93;;;;;;;;;;347847;28;1217;-69
2021/06/22 00:02:44;;;;;;;1.30;0.90;;;;;;;;;;347770;28;1113;-69
2021/06/22 00:02:57;;;;;;;1.08;0.80;;;;;;;;;;345183;28;1114;-69
2021/06/22 00:03:09;;;;;;;1.35;0.90;;;;;;;;;;345430;28;1983;-71
2021/06/22 00:03:21;;;;;;;1.75;0.90;;;;;;;;;;347137;28;1906;-69
2021/06/22 00:03:33;;;;;;;2.42;0.90;;;;;;;;;;346171;28;1137;-70
2021/06/22 00:03:45;;;;;;;2.33;1.00;;;;;;;;;;345134;28;1082;-69
2021/06/22 00:03:57;;;;;;;2.30;0.90;;;;;;;;;;346121;28;998;-69
2021/06/22 00:04:09;;;;;;;2.33;0.90;;;;;;;;;;346580;28;1039;-70
2021/06/22 00:04:22;;;;;;;2.08;0.80;;;;;;;;;;346547;28;1034;-69
2021/06/22 00:04:34;;;;;;;1.52;0.70;;;;;;;;;;345163;28;1125;-69
2021/06/22 00:04:46;;;;;;;1.55;0.70;;;;;;;;;;345210;28;1265;-69
2021/06/22 00:04:58;;;;;;;2.28;0.77;;;;;;;;;;347441;28;1434;-69
2021/06/22 00:05:10;;;;;;;2.13;0.80;;;;;;;;;;347950;28;1319;-70
2021/06/22 00:05:24;;;;;;;2.58;0.80;;;;;;;;;;347835;28;1081;-70
2021/06/22 00:05:37;;;;;;;2.38;0.90;;;;;;;;;;347515;28;17840;-70
2021/06/22 00:05:49;;;;;;;2.47;0.85;;;;;;;;;;346408;28;1274;-70
2021/06/22 00:06:01;;;;;;;2.80;0.90;;;;;;;;;;347014;28;1859;-70
2021/06/22 00:06:13;;;;;;;3.15;1.00;;;;;;;;;;347352;28;1099;-70
2021/06/22 00:06:25;;;;;;;2.25;0.93;;;;;;;;;;346469;28;1067;-70
2021/06/22 00:06:37;;;;;;;2.00;0.80;;;;;;;;;;345851;28;1135;-70
2021/06/22 00:06:50;;;;;;;1.85;0.85;;;;;;;;;;346431;28;1076;-70
2021/06/22 00:07:02;;;;;;;1.70;0.90;;;;;;;;;;346481;28;1130;-69
2021/06/22 00:07:18;;;;;;;2.15;0.80;;;;;;;;;;346216;28;1617;-70
2021/06/22 00:07:30;;;;;;;2.42;0.80;;;;;;;;;;344407;28;62663;-70
2021/06/22 00:07:42;;;;;;;2.13;0.85;;;;;;;;;;346469;28;1026;-70
2021/06/22 00:07:55;;;;;;;1.80;0.80;;;;;;;;;;347510;28;1210;-70
2021/06/22 00:08:07;;;;;;;3.50;1.00;;;;;;;;;;347838;28;1068;-70
2021/06/22 00:08:19;;;;;;;4.00;1.08;;;;;;;;;;347534;28;1254;-69
2021/06/22 00:08:47;;;;;;;3.03;0.82;;;;;;;;;;345770;28;63275;-70
2021/06/22 00:09:00;;;;;;;2.55;0.73;;;;;;;;;;348054;28;1110;-69
2021/06/22 00:09:12;;;;;;;2.80;0.75;;;;;;;;;;348034;28;1190;-70
2021/06/22 00:09:24;;;;;;;2.25;0.85;;;;;;;;;;348064;28;1069;-70
2021/06/22 00:09:38;;;;;;;1.90;0.90;;;;;;;;;;348332;28;1062;-70
2021/06/22 00:09:50;;;;;;;2.00;1.00;;;;;;;;;;348816;28;1973;-69
2021/06/22 00:10:05;;;;;;;1.75;0.90;;;;;;;;;;348956;28;1230;-70
2021/06/22 00:10:19;;;;;;;2.35;1.00;;;;;;;;;;347802;28;41052;-70
2021/06/22 00:10:31;;;;;;;1.90;0.98;;;;;;;;;;348571;28;16299;-70
2021/06/22 00:10:43;;;;;;;2.78;0.98;;;;;;;;;;349151;28;1136;-70
2021/06/22 00:10:55;;;;;;;3.20;1.10;;;;;;;;;;349173;28;1022;-71
2021/06/22 00:11:07;;;;;;;2.70;1.12;;;;;;;;;;349223;28;1164;-69
2021/06/22 00:11:20;;;;;;;2.13;1.17;;;;;;;;;;346522;28;1694;-70
2021/06/22 00:11:32;;;;;;;2.63;1.05;;;;;;;;;;346493;28;1154;-69
2021/06/22 00:11:44;;;;;;;3.05;1.10;;;;;;;;;;346247;28;1216;-69
2021/06/22 00:11:56;;;;;;;2.78;1.00;;;;;;;;;;344283;28;1106;-70
2021/06/22 00:12:09;;;;;;;1.85;0.80;;;;;;;;;;345047;28;1054;-70
2021/06/22 00:12:21;;;;;;;1.52;0.90;;;;;;;;;;345178;28;1094;-70
2021/06/22 00:12:33;;;;;;;1.50;0.90;;;;;;;;;;344983;28;1181;-70
2021/06/22 00:12:48;;;;;;;2.20;0.90;;;;;;;;;;341693;28;64461;-70
2021/06/22 00:13:01;;;;;;;2.97;0.90;;;;;;;;;;343850;28;1169;-71
2021/06/22 00:13:13;;;;;;;3.35;0.95;;;;;;;;;;343835;28;1113;-70
2021/06/22 00:13:25;;;;;;;1.98;0.98;;;;;;;;;;345625;28;1595;-71
2021/06/22 00:13:37;;;;;;;1.40;0.93;;;;;;;;;;345397;28;1129;-70
2021/06/22 00:13:50;;;;;;;1.50;0.90;;;;;;;;;;346432;28;1055;-70
2021/06/22 00:14:02;;;;;;;1.98;0.80;;;;;;;;;;346432;28;1187;-70
2021/06/22 00:14:14;;;;;;;2.00;0.85;;;;;;;;;;346457;28;1119;-70
2021/06/22 00:14:26;;;;;;;1.88;0.80;;;;;;;;;;346789;28;1181;-70
2021/06/22 00:14:38;;;;;;;1.73;0.98;;;;;;;;;;346448;28;1103;-70
2021/06/22 00:14:51;;;;;;;2.35;1.00;;;;;;;;;;347084;28;1114;-70
2021/06/22 00:15:04;;;;;;;2.72;1.00;;;;;;;;;;347718;28;1346;-69
2021/06/22 00:15:17;;;;;;;2.28;0.90;;;;;;;;;;347830;28;1068;-69
2021/06/22 00:15:30;;;;;;;1.40;0.93;;;;;;;;;;347234;28;17994;-70
2021/06/22 00:15:42;;;;;;;2.00;0.82;;;;;;;;;;347772;28;1089;-70
2021/06/22 00:15:54;;;;;;;2.33;0.90;;;;;;;;;;347903;28;1098;-69
2021/06/22 00:16:07;;;;;;;1.68;0.90;;;;;;;;;;347709;28;1129;-70
2021/06/22 00:16:19;;;;;;;1.50;0.80;;;;;;;;;;347599;28;1261;-70
2021/06/22 00:16:33;;;;;;;1.80;0.88;;;;;;;;;;347760;28;1077;-69
2021/06/22 00:16:45;;;;;;;1.80;0.90;;;;;;;;;;347222;28;18214;-70
2021/06/22 00:16:57;;;;;;;2.00;0.90;;;;;;;;;;347542;28;1447;-71
2021/06/22 00:17:09;;;;;;;3.00;0.90;;;;;;;;;;347767;28;1106;-70
2021/06/22 00:17:22;;;;;;;3.58;0.80;;;;;;;;;;347710;28;1082;-70
2021/06/22 00:17:34;;;;;;;3.58;0.80;;;;;;;;;;347827;28;1306;-70
2021/06/22 00:17:47;;;;;;;3.55;0.93;;;;;;;;;;347688;28;1380;-69
2021/06/22 00:17:59;;;;;;;2.78;1.00;;;;;;;;;;348900;28;1596;-70
2021/06/22 00:18:11;;;;;;;2.17;1.10;;;;;;;;;;347778;28;1133;-70
2021/06/22 00:18:24;;;;;;;2.10;0.95;;;;;;;;;;343919;28;1101;-69
2021/06/22 00:18:36;;;;;;;2.20;0.93;;;;;;;;;;345067;28;1674;-70
2021/06/22 00:18:48;;;;;;;2.33;1.00;;;;;;;;;;345049;28;1153;-70
2021/06/22 00:19:00;;;;;;;2.50;1.00;;;;;;;;;;344134;28;1098;-71
2021/06/22 00:19:13;;;;;;;3.08;0.90;;;;;;;;;;343715;28;1132;-70
2021/06/22 00:19:25;;;;;;;2.70;0.80;;;;;;;;;;343774;28;1081;-69
2021/06/22 00:19:38;;;;;;;2.35;0.90;;;;;;;;;;342573;28;1033;-70
2021/06/22 00:19:50;;;;;;;2.10;0.90;;;;;;;;;;342667;28;1042;-69
2021/06/22 00:20:03;;;;;;;2.63;0.82;;;;;;;;;;342436;28;1073;-69
2021/06/22 00:20:16;;;;;;;2.70;0.70;;;;;;;;;;342667;28;1090;-70
2021/06/22 00:20:28;;;;;;;2.78;0.75;;;;;;;;;;344742;28;1208;-69
2021/06/22 00:20:40;;;;;;;2.33;0.90;;;;;;;;;;345422;28;1243;-69
2021/06/22 00:20:53;;;;;;;2.42;0.90;;;;;;;;;;347604;28;1063;-70
2021/06/22 00:21:05;;;;;;;2.25;0.90;;;;;;;;;;347907;28;1133;-70
2021/06/22 00:21:17;;;;;;;2.00;0.95;;;;;;;;;;347622;28;1172;-69
2021/06/22 00:21:29;;;;;;;1.40;0.90;;;;;;;;;;347917;28;1251;-70
2021/06/22 00:21:41;;;;;;;1.63;0.88;;;;;;;;;;347938;28;2168;-70
2021/06/22 00:21:53;;;;;;;1.88;0.88;;;;;;;;;;348052;28;1193;-70
2021/06/22 00:22:06;;;;;;;2.28;0.80;;;;;;;;;;347847;28;1173;-69
2021/06/22 00:22:18;;;;;;;2.50;0.93;;;;;;;;;;347756;28;1067;-70
2021/06/22 00:22:30;;;;;;;1.70;0.90;;;;;;;;;;347888;28;1089;-69
2021/06/22 00:22:42;;;;;;;1.60;0.90;;;;;;;;;;347727;28;1074;-70
2021/06/22 00:22:55;;;;;;;1.33;0.80;;;;;;;;;;347778;28;1002;-70
2021/06/22 00:23:07;;;;;;;1.58;0.90;;;;;;;;;;347963;28;1165;-69
2021/06/22 00:23:19;;;;;;;2.22;1.02;;;;;;;;;;346827;28;1080;-70
2021/06/22 00:23:31;;;;;;;2.30;1.05;;;;;;;;;;346502;28;1098;-69
2021/06/22 00:23:43;;;;;;;1.77;1.00;;;;;;;;;;346569;28;1184;-70
2021/06/22 00:23:55;;;;;;;2.00;1.00;;;;;;;;;;346327;28;2098;-69
2021/06/22 00:24:08;;;;;;;2.47;0.90;;;;;;;;;;346558;28;17107;-70
2021/06/22 00:24:21;;;;;;;2.63;0.93;;;;;;;;;;348075;28;1165;-69
2021/06/22 00:24:33;;;;;;;2.45;1.00;;;;;;;;;;347863;28;1101;-69
2021/06/22 00:24:45;;;;;;;2.17;1.00;;;;;;;;;;347858;28;1920;-69
2021/06/22 00:24:57;;;;;;;1.92;0.90;;;;;;;;;;347754;28;1093;-70
2021/06/22 00:25:11;;;;;;;2.15;0.80;;;;;;;;;;347351;28;1525;-70
2021/06/22 00:25:25;;;;;;;2.70;0.90;;;;;;;;;;347333;28;17210;-69
2021/06/22 00:25:38;;;;;;;2.67;1.00;;;;;;;;;;347184;28;16542;-70
2021/06/22 00:25:50;;;;;;;2.10;0.98;;;;;;;;;;347605;28;1247;-70
2021/06/22 00:26:02;;;;;;;2.25;0.90;;;;;;;;;;347793;28;1019;-69
2021/06/22 00:26:14;;;;;;;2.40;0.98;;;;;;;;;;347709;28;1116;-69
2021/06/22 00:26:26;;;;;;;1.73;1.02;;;;;;;;;;347652;28;1927;-70
2021/06/22 00:26:39;;;;;;;2.15;1.10;;;;;;;;;;347552;28;1142;-70
2021/06/22 00:26:51;;;;;;;2.15;0.98;;;;;;;;;;347840;28;1084;-69
2021/06/22 00:27:03;;;;;;;1.50;0.82;;;;;;;;;;347800;28;1110;-70
2021/06/22 00:27:16;;;;;;;1.52;0.96;;;;;;;;;;348037;28;1133;-70
2021/06/22 00:27:28;;;;;;;3.53;1.17;;;;;;;;;;347863;28;1290;-69
2021/06/22 00:27:40;;;;;;;3.17;1.10;;;;;;;;;;348044;28;1098;-70
2021/06/22 00:27:52;;;;;;;1.75;1.00;;;;;;;;;;348129;28;1078;-70
2021/06/22 00:28:04;;;;;;;2.40;1.00;;;;;;;;;;348206;28;1069;-69
2021/06/22 00:28:17;;;;;;;2.60;0.98;;;;;;;;;;348185;28;1045;-69
2021/06/22 00:28:29;;;;;;;1.80;0.93;;;;;;;;;;347601;28;1921;-69
2021/06/22 00:28:41;;;;;;;1.63;1.00;;;;;;;;;;347006;28;1134;-69
2021/06/22 00:28:53;;;;;;;1.85;1.00;;;;;;;;;;348160;28;1116;-70
2021/06/22 00:29:05;;;;;;;2.72;1.10;;;;;;;;;;348300;28;1551;-69
2021/06/22 00:29:20;;;;;;;3.40;1.00;;;;;;;;;;350363;28;1836;-70
2021/06/22 00:29:32;;;;;;;2.15;0.88;;;;;;;;;;348319;28;40114;-69
2021/06/22 00:29:49;;;;;;;1.17;0.88;;;;;;;;;;349207;28;1085;-69
2021/06/22 00:30:01;;;;;;;1.45;0.82;;;;;;;;;;347169;28;64451;-70
2021/06/22 00:30:13;;;;;;;2.10;0.85;;;;;;;;;;349250;28;1495;-69
2021/06/22 00:30:25;;;;;;;2.03;0.90;;;;;;;;;;349171;28;1156;-70
2021/06/22 00:30:38;;;;;;;1.75;0.90;;;;;;;;;;349247;28;1109;-70
2021/06/22 00:30:50;;;;;;;1.42;0.90;;;;;;;;;;349189;28;1223;-69
2021/06/22 00:31:02;;;;;;;1.92;1.00;;;;;;;;;;349269;28;1322;-69
2021/06/22 00:31:17;;;;;;;1.85;0.93;;;;;;;;;;348804;28;1165;-70
2021/06/22 00:31:29;;;;;;;1.42;0.85;;;;;;;;;;344365;28;64024;-70
2021/06/22 00:31:41;;;;;;;1.73;0.88;;;;;;;;;;347479;28;1082;-70
2021/06/22 00:31:53;;;;;;;1.65;0.90;;;;;;;;;;348129;28;1070;-70
2021/06/22 00:32:06;;;;;;;2.08;1.00;;;;;;;;;;348023;28;1033;-70
2021/06/22 00:32:18;;;;;;;2.63;0.98;;;;;;;;;;346658;28;1102;-70
2021/06/22 00:32:30;;;;;;;2.38;0.82;;;;;;;;;;346569;28;1943;-69
2021/06/22 00:32:42;;;;;;;2.50;0.82;;;;;;;;;;346693;28;1086;-70
2021/06/22 00:32:55;;;;;;;1.50;0.90;;;;;;;;;;346806;28;1085;-70
2021/06/22 00:33:07;;;;;;;1.63;1.00;;;;;;;;;;346647;28;1109;-70
2021/06/22 00:33:19;;;;;;;1.35;0.90;;;;;;;;;;347761;28;1520;-70
2021/06/22 00:33:31;;;;;;;1.60;0.93;;;;;;;;;;348002;28;1024;-70
2021/06/22 00:33:44;;;;;;;1.65;1.00;;;;;;;;;;348053;28;1037;-70
2021/06/22 00:33:56;;;;;;;1.65;1.00;;;;;;;;;;347526;28;2034;-69
2021/06/22 00:34:08;;;;;;;1.63;0.90;;;;;;;;;;347804;28;1089;-70
2021/06/22 00:34:20;;;;;;;1.83;0.93;;;;;;;;;;347678;28;1231;-70
2021/06/22 00:34:32;;;;;;;1.83;1.05;;;;;;;;;;347850;28;1172;-69
2021/06/22 00:34:45;;;;;;;1.38;1.02;;;;;;;;;;347795;28;1245;-70
2021/06/22 00:34:57;;;;;;;1.60;1.10;;;;;;;;;;347766;28;1125;-69
2021/06/22 00:35:09;;;;;;;1.73;1.10;;;;;;;;;;347766;28;1022;-69
2021/06/22 00:35:22;;;;;;;1.80;1.00;;;;;;;;;;347891;28;1045;-70
2021/06/22 00:35:35;;;;;;;2.47;1.10;;;;;;;;;;347769;28;1963;-70
2021/06/22 00:35:47;;;;;;;2.45;1.10;;;;;;;;;;347719;28;1431;-69
2021/06/22 00:35:59;;;;;;;3.47;1.13;;;;;;;;;;347403;28;1102;-70
2021/06/22 00:36:11;;;;;;;3.55;1.08;;;;;;;;;;347904;28;1091;-71
2021/06/22 00:36:24;;;;;;;2.63;1.02;;;;;;;;;;348158;28;1235;-70
2021/06/22 00:36:36;;;;;;;1.35;1.10;;;;;;;;;;348003;28;1300;-70
2021/06/22 00:36:48;;;;;;;1.98;1.17;;;;;;;;;;347944;28;1180;-69
2021/06/22 00:37:00;;;;;;;2.00;1.17;;;;;;;;;;348047;28;2098;-70
2021/06/22 00:37:14;;;;;;;1.80;1.00;;;;;;;;;;348068;28;1050;-69
2021/06/22 00:37:27;;;;;;;1.80;0.98;;;;;;;;;;346659;28;40173;-71
2021/06/22 00:37:40;;;;;;;2.20;0.90;;;;;;;;;;347804;28;1285;-70
2021/06/22 00:37:52;;;;;;;2.15;1.10;;;;;;;;;;349187;28;1042;-70
2021/06/22 00:38:04;;;;;;;2.00;1.30;;;;;;;;;;349303;28;1029;-69
2021/06/22 00:38:16;;;;;;;2.45;1.70;;;;;;;;;;348847;28;1898;-70
2021/06/22 00:38:28;;;;;;;2.80;1.88;;;;;;;;;;349045;28;995;-70
2021/06/22 00:38:40;;;;;;;3.13;2.10;;;;;;;;;;349048;28;1070;-70
2021/06/22 00:38:52;;;;;;;3.47;2.03;;;;;;;;;;349148;28;1069;-70
2021/06/22 00:39:04;;;;;;;2.95;1.63;;;;;;;;;;349191;28;1124;-69
2021/06/22 00:39:16;;;;;;;2.54;1.46;;;;;;;;;;349181;28;1233;-70
2021/06/22 00:39:29;;;;;;;2.25;1.30;;;;;;;;;;349175;28;1164;-70
2021/06/22 00:39:41;;;;;;;2.00;1.20;;;;;;;;;;348867;28;1633;-70
2021/06/22 00:39:53;;;;;;;1.70;1.10;;;;;;;;;;349232;28;1702;-69
2021/06/22 00:40:06;;;;;;;2.35;1.13;;;;;;;;;;348189;28;1017;-70
2021/06/22 00:40:18;;;;;;;2.40;1.13;;;;;;;;;;348034;28;1073;-69
2021/06/22 00:40:30;;;;;;;1.67;1.08;;;;;;;;;;348174;28;1196;-70
2021/06/22 00:40:42;;;;;;;2.63;1.13;;;;;;;;;;348006;28;1106;-69
2021/06/22 00:40:55;;;;;;;3.33;1.20;;;;;;;;;;348085;28;1247;-70
2021/06/22 00:41:07;;;;;;;2.97;1.20;;;;;;;;;;347903;28;1222;-69
2021/06/22 00:41:20;;;;;;;2.45;1.10;;;;;;;;;;347925;28;1150;-70
2021/06/22 00:41:32;;;;;;;2.80;1.23;;;;;;;;;;347509;28;1165;-69
2021/06/22 00:41:44;;;;;;;2.35;1.30;;;;;;;;;;348045;28;1021;-69
2021/06/22 00:41:56;;;;;;;1.70;1.20;;;;;;;;;;348094;28;1281;-69
2021/06/22 00:42:09;;;;;;;1.13;1.00;;;;;;;;;;348094;28;1110;-69
2021/06/22 00:42:21;;;;;;;1.95;1.10;;;;;;;;;;347934;28;1193;-69
2021/06/22 00:42:33;;;;;;;2.70;1.30;;;;;;;;;;347812;28;1126;-69
2021/06/22 00:42:46;;;;;;;2.85;1.20;;;;;;;;;;347951;28;1242;-70
2021/06/22 00:42:58;;;;;;;2.28;1.10;;;;;;;;;;348117;28;1663;-70
2021/06/22 00:43:10;;;;;;;2.38;1.20;;;;;;;;;;349242;28;1104;-70
2021/06/22 00:43:22;;;;;;;1.80;1.20;;;;;;;;;;349233;28;993;-70
2021/06/22 00:43:40;;;;;;;1.25;1.10;;;;;;;;;;348256;28;1085;-70
2021/06/22 00:43:52;;;;;;;1.55;1.17;;;;;;;;;;345821;28;63957;-70
2021/06/22 00:44:05;;;;;;;1.60;1.20;;;;;;;;;;347535;28;1881;-69
2021/06/22 00:44:17;;;;;;;1.73;1.17;;;;;;;;;;347895;28;1285;-70
2021/06/22 00:44:29;;;;;;;1.50;1.20;;;;;;;;;;347919;28;1352;-69
2021/06/22 00:44:47;;;;;;;1.90;1.40;;;;;;;;;;348108;28;1014;-69
2021/06/22 00:45:00;;;;;;;1.80;1.30;;;;;;;;;;345894;28;63908;-70
2021/06/22 00:45:13;;;;;;;1.48;1.10;;;;;;;;;;347786;28;1058;-70
2021/06/22 00:45:28;;;;;;;2.35;1.15;;;;;;;;;;348119;28;1149;-70
2021/06/22 00:45:43;;;;;;;2.58;1.10;;;;;;;;;;345951;28;64345;-70
2021/06/22 00:45:55;;;;;;;2.55;1.20;;;;;;;;;;347604;28;16701;-69
2021/06/22 00:46:07;;;;;;;4.20;1.35;;;;;;;;;;347912;28;1132;-69
2021/06/22 00:46:19;;;;;;;4.68;1.30;;;;;;;;;;346400;28;1981;-69
2021/06/22 00:46:32;;;;;;;3.08;1.30;;;;;;;;;;346622;28;1130;-70
2021/06/22 00:46:44;;;;;;;2.85;1.27;;;;;;;;;;346185;28;1736;-70
2021/06/22 00:46:56;;;;;;;2.20;1.30;;;;;;;;;;346486;28;992;-70
2021/06/22 00:47:08;;;;;;;1.80;1.20;;;;;;;;;;346334;28;1090;-70
2021/06/22 00:47:21;;;;;;;1.60;1.15;;;;;;;;;;346540;28;1096;-70
2021/06/22 00:47:33;;;;;;;1.88;1.15;;;;;;;;;;345113;28;1035;-70
2021/06/22 00:47:46;;;;;;;4.57;1.20;;;;;;;;;;345102;28;1136;-69
2021/06/22 00:47:58;;;;;;;5.10;1.30;;;;;;;;;;346070;28;1117;-70
2021/06/22 00:48:10;;;;;;;2.42;1.23;;;;;;;;;;346327;28;1160;-69
2021/06/22 00:48:22;;;;;;;1.73;1.13;;;;;;;;;;346497;28;1269;-69
2021/06/22 00:48:34;;;;;;;1.23;1.10;;;;;;;;;;346109;28;1924;-72
2021/06/22 00:48:46;;;;;;;1.88;1.20;;;;;;;;;;345911;28;1075;-70
2021/06/22 00:48:59;;;;;;;2.70;1.30;;;;;;;;;;347862;28;1189;-70
2021/06/22 00:49:11;;;;;;;2.50;1.20;;;;;;;;;;346389;28;1091;-70
2021/06/22 00:49:23;;;;;;;2.60;1.15;;;;;;;;;;346604;28;1201;-70
2021/06/22 00:49:35;;;;;;;1.45;1.13;;;;;;;;;;346699;28;1239;-71
2021/06/22 00:49:48;;;;;;;1.42;1.20;;;;;;;;;;348032;28;1002;-69
2021/06/22 00:50:00;;;;;;;2.40;1.30;;;;;;;;;;347431;28;16627;-70
2021/06/22 00:50:12;;;;;;;2.83;1.30;;;;;;;;;;348102;28;1110;-71
2021/06/22 00:50:25;;;;;;;2.90;1.23;;;;;;;;;;348133;28;1319;-70
2021/06/22 00:50:37;;;;;;;2.56;1.10;;;;;;;;;;349019;28;1633;-70
2021/06/22 00:50:49;;;;;;;2.97;1.10;;;;;;;;;;347874;28;1232;-69
2021/06/22 00:51:01;;;;;;;2.90;1.20;;;;;;;;;;348050;28;1296;-70
2021/06/22 00:51:13;;;;;;;2.25;1.40;;;;;;;;;;347529;28;1922;-70
2021/06/22 00:51:25;;;;;;;2.85;1.50;;;;;;;;;;347805;28;1086;-70
2021/06/22 00:51:39;;;;;;;2.80;1.42;;;;;;;;;;348117;28;1085;-70
2021/06/22 00:51:51;;;;;;;1.90;1.40;;;;;;;;;;346615;28;1149;-69
2021/06/22 00:52:03;;;;;;;2.67;1.30;;;;;;;;;;346286;28;1023;-70
2021/06/22 00:52:25;;;;;;;3.52;1.34;;;;;;;;;;346904;28;1321;-69
2021/06/22 00:52:38;;;;;;;2.63;1.30;;;;;;;;;;345563;28;62651;-70
2021/06/22 00:52:50;;;;;;;1.90;1.20;;;;;;;;;;347615;28;1188;-70
2021/06/22 00:53:02;;;;;;;2.10;1.25;;;;;;;;;;347499;28;1303;-70
2021/06/22 00:53:15;;;;;;;2.35;1.30;;;;;;;;;;347876;28;1003;-69
2021/06/22 00:53:27;;;;;;;2.28;1.20;;;;;;;;;;347837;28;1074;-69
2021/06/22 00:53:39;;;;;;;1.60;1.10;;;;;;;;;;347780;28;966;-70
2021/06/22 00:53:51;;;;;;;1.30;1.20;;;;;;;;;;347864;28;1050;-69
2021/06/22 00:54:04;;;;;;;1.42;1.30;;;;;;;;;;347435;28;1936;-70
2021/06/22 00:54:16;;;;;;;2.42;1.23;;;;;;;;;;347692;28;1156;-69
2021/06/22 00:54:28;;;;;;;2.78;1.40;;;;;;;;;;346707;28;1154;-70
2021/06/22 00:54:40;;;;;;;2.30;1.40;;;;;;;;;;347327;28;1177;-70
2021/06/22 00:54:53;;;;;;;1.74;1.44;;;;;;;;;;348005;28;1606;-69
2021/06/22 00:55:11;;;;;;;1.55;1.30;;;;;;;;;;347941;28;1079;-69
2021/06/22 00:55:30;;;;;;;2.13;1.25;;;;;;;;;;345983;28;63733;-70
2021/06/22 00:56:02;;;;;;;3.05;1.60;;;;;;;;;;345835;28;63687;-70
2021/06/22 00:56:14;;;;;;;2.97;1.40;;;;;;;;;;347979;28;1046;-70
2021/06/22 00:56:29;;;;;;;3.22;1.48;;;;;;;;;;347741;28;1297;-70
2021/06/22 00:56:41;;;;;;;3.33;1.50;;;;;;;;;;347350;28;18410;-70
2021/06/22 00:56:53;;;;;;;2.90;1.35;;;;;;;;;;347706;28;1084;-70
2021/06/22 00:57:06;;;;;;;2.85;1.30;;;;;;;;;;348037;28;1341;-70
2021/06/22 00:57:18;;;;;;;2.05;1.33;;;;;;;;;;348000;28;1076;-70
2021/06/22 00:57:31;;;;;;;1.63;1.25;;;;;;;;;;347921;28;1038;-70
2021/06/22 00:57:43;;;;;;;2.65;1.30;;;;;;;;;;347853;28;983;-70
2021/06/22 00:58:01;;;;;;;2.30;1.20;;;;;;;;;;347802;28;998;-69
2021/06/22 00:58:13;;;;;;;3.45;1.40;;;;;;;;;;345843;28;62495;-70
2021/06/22 00:58:25;;;;;;;4.40;1.67;;;;;;;;;;347948;28;1253;-69
2021/06/22 00:58:37;;;;;;;2.70;1.70;;;;;;;;;;347934;28;1072;-69
2021/06/22 00:58:50;;;;;;;2.78;1.70;;;;;;;;;;348034;28;1038;-70
2021/06/22 00:59:02;;;;;;;1.75;1.50;;;;;;;;;;348024;28;1201;-69
2021/06/22 00:59:15;;;;;;;2.00;1.50;;;;;;;;;;347916;28;1122;-70
2021/06/22 00:59:27;;;;;;;2.80;1.48;;;;;;;;;;348005;28;1257;-70
2021/06/22 00:59:39;;;;;;;2.30;1.40;;;;;;;;;;347978;28;1951;-70
2021/06/22 00:59:51;;;;;;;1.65;1.50;;;;;;;;;;347737;28;1292;-71
2021/06/22 01:00:05;;;;;;;2.60;1.75;;;;;;;;;;348062;28;1295;-70
2021/06/22 01:00:17;;;;;;;3.65;1.90;;;;;;;;;;347113;28;16936;-70
2021/06/22 01:00:29;;;;;;;3.30;1.90;;;;;;;;;;347950;28;1277;-70
2021/06/22 01:00:41;;;;;;;2.00;1.80;;;;;;;;;;348051;28;1221;-70
2021/06/22 01:00:53;;;;;;;2.65;1.85;;;;;;;;;;348053;28;1105;-70
2021/06/22 01:01:06;;;;;;;3.38;1.90;;;;;;;;;;349878;28;1601;-69
2021/06/22 01:01:18;;;;;;;3.25;1.73;;;;;;;;;;349093;28;1151;-70
2021/06/22 01:01:31;;;;;;;2.10;1.70;;;;;;;;;;347603;28;1447;-70
2021/06/22 01:01:43;;;;;;;2.92;1.83;;;;;;;;;;347605;28;1068;-70
2021/06/22 01:01:55;;;;;;;3.55;1.85;;;;;;;;;;347847;28;1116;-70
2021/06/22 01:02:07;;;;;;;3.28;1.80;;;;;;;;;;347598;28;1158;-70
2021/06/22 01:02:21;;;;;;;3.40;1.90;;;;;;;;;;347745;28;1098;-70
2021/06/22 01:02:33;;;;;;;2.88;2.00;;;;;;;;;;347744;28;1173;-70
2021/06/22 01:02:45;;;;;;;2.10;1.90;;;;;;;;;;347715;28;1086;-70
2021/06/22 01:02:58;;;;;;;2.20;1.85;;;;;;;;;;347600;28;1104;-70
2021/06/22 01:03:10;;;;;;;2.34;1.84;;;;;;;;;;347571;28;1413;-71
2021/06/22 01:03:22;;;;;;;2.35;2.03;;;;;;;;;;347724;28;1038;-70
2021/06/22 01:03:34;;;;;;;2.35;1.95;;;;;;;;;;347732;28;1074;-70
2021/06/22 01:03:46;;;;;;;2.80;2.00;;;;;;;;;;347948;28;1345;-70
2021/06/22 01:03:59;;;;;;;2.74;1.94;;;;;;;;;;347852;28;1783;-70
2021/06/22 01:04:11;;;;;;;3.70;2.30;;;;;;;;;;347457;28;2035;-70
2021/06/22 01:04:23;;;;;;;3.65;2.30;;;;;;;;;;348062;28;1106;-70
2021/06/22 01:04:35;;;;;;;3.97;2.35;;;;;;;;;;347985;28;1002;-70
2021/06/22 01:04:48;;;;;;;3.75;2.17;;;;;;;;;;347985;28;1141;-69
2021/06/22 01:05:01;;;;;;;3.63;2.00;;;;;;;;;;346152;28;16785;-70
2021/06/22 01:05:13;;;;;;;4.43;2.10;;;;;;;;;;347596;28;2017;-69
2021/06/22 01:05:25;;;;;;;4.20;2.10;;;;;;;;;;348078;28;1172;-70
2021/06/22 01:05:38;;;;;;;3.15;2.00;;;;;;;;;;347924;28;1106;-71
2021/06/22 01:05:50;;;;;;;2.34;1.94;;;;;;;;;;347903;28;1153;-70
2021/06/22 01:06:02;;;;;;;2.60;2.00;;;;;;;;;;347672;28;1304;-71
2021/06/22 01:06:15;;;;;;;2.83;2.00;;;;;;;;;;347956;28;1060;-70
2021/06/22 01:06:27;;;;;;;2.85;2.10;;;;;;;;;;347949;28;1109;-70
2021/06/22 01:06:39;;;;;;;2.22;2.03;;;;;;;;;;347656;28;1262;-71
2021/06/22 01:06:52;;;;;;;2.55;2.10;;;;;;;;;;347698;28;1355;-70
2021/06/22 01:07:05;;;;;;;3.13;2.03;;;;;;;;;;347782;28;1185;-70
2021/06/22 01:07:17;;;;;;;3.00;2.00;;;;;;;;;;347968;28;1927;-70
2021/06/22 01:07:29;;;;;;;3.38;2.10;;;;;;;;;;347779;28;1164;-70
2021/06/22 01:07:42;;;;;;;3.22;2.00;;;;;;;;;;347684;28;1168;-70
2021/06/22 01:07:55;;;;;;;2.80;1.90;;;;;;;;;;347772;28;1918;-70
2021/06/22 01:08:07;;;;;;;2.70;1.88;;;;;;;;;;347939;28;1172;-70
2021/06/22 01:08:19;;;;;;;2.42;2.00;;;;;;;;;;347136;28;1997;-70
2021/06/22 01:08:33;;;;;;;2.53;2.10;;;;;;;;;;347661;28;1023;-70
2021/06/22 01:08:45;;;;;;;3.97;2.03;;;;;;;;;;347790;28;1300;-70
2021/06/22 01:08:57;;;;;;;3.42;1.90;;;;;;;;;;345169;28;1090;-70
2021/06/22 01:09:09;;;;;;;2.90;1.90;;;;;;;;;;344997;28;1019;-71
2021/06/22 01:09:21;;;;;;;2.65;1.92;;;;;;;;;;345457;28;1106;-70
2021/06/22 01:09:34;;;;;;;2.85;1.98;;;;;;;;;;346296;28;1062;-70
2021/06/22 01:09:46;;;;;;;2.28;1.85;;;;;;;;;;346395;28;1354;-71
2021/06/22 01:09:58;;;;;;;2.65;1.92;;;;;;;;;;346308;28;1243;-70
2021/06/22 01:10:11;;;;;;;3.28;1.90;;;;;;;;;;346244;28;992;-70
2021/06/22 01:10:23;;;;;;;3.30;1.90;;;;;;;;;;346344;28;1037;-70
2021/06/22 01:10:36;;;;;;;2.40;2.10;;;;;;;;;;345013;28;1139;-70
2021/06/22 01:10:48;;;;;;;2.55;2.17;;;;;;;;;;344837;28;1055;-70
2021/06/22 01:11:00;;;;;;;2.33;2.03;;;;;;;;;;345470;28;2044;-70
2021/06/22 01:11:13;;;;;;;2.50;2.05;;;;;;;;;;346268;28;1199;-70
2021/06/22 01:11:25;;;;;;;2.13;1.90;;;;;;;;;;346272;28;1337;-70
2021/06/22 01:11:38;;;;;;;2.88;1.92;;;;;;;;;;345617;28;1550;-70
2021/06/22 01:11:50;;;;;;;3.08;1.95;;;;;;;;;;346166;28;1617;-70
2021/06/22 01:12:02;;;;;;;2.25;1.95;;;;;;;;;;347321;28;1280;-70
2021/06/22 01:12:15;;;;;;;2.47;2.03;;;;;;;;;;346435;28;1082;-70
2021/06/22 01:12:27;;;;;;;2.65;2.15;;;;;;;;;;346512;28;1161;-70
2021/06/22 01:12:39;;;;;;;3.70;2.20;;;;;;;;;;347396;28;1047;-70
2021/06/22 01:12:52;;;;;;;4.10;2.05;;;;;;;;;;347893;28;1122;-70
2021/06/22 01:13:04;;;;;;;2.83;1.90;;;;;;;;;;347826;28;1302;-70
2021/06/22 01:13:16;;;;;;;2.42;1.95;;;;;;;;;;347992;28;1112;-68
2021/06/22 01:13:29;;;;;;;3.25;2.05;;;;;;;;;;347631;28;1163;-70
2021/06/22 01:13:41;;;;;;;4.47;2.08;;;;;;;;;;347912;28;1097;-70
2021/06/22 01:13:54;;;;;;;4.60;2.03;;;;;;;;;;347861;28;1078;-70
2021/06/22 01:14:06;;;;;;;4.38;2.17;;;;;;;;;;347300;28;1926;-70
2021/06/22 01:14:18;;;;;;;3.75;2.30;;;;;;;;;;347098;28;1081;-70
2021/06/22 01:14:30;;;;;;;4.50;2.28;;;;;;;;;;346581;28;930;-70
2021/06/22 01:14:44;;;;;;;4.38;2.17;;;;;;;;;;347368;28;1071;-70
2021/06/22 01:14:56;;;;;;;2.85;1.95;;;;;;;;;;347325;28;17972;-70
2021/06/22 01:15:16;;;;;;;2.50;2.20;;;;;;;;;;347600;28;1355;-70
2021/06/22 01:15:29;;;;;;;4.22;2.25;;;;;;;;;;344375;28;63568;-71
2021/06/22 01:15:41;;;;;;;3.95;2.10;;;;;;;;;;345822;28;16108;-70
2021/06/22 01:15:53;;;;;;;3.22;1.95;;;;;;;;;;346394;28;1089;-70
2021/06/22 01:16:06;;;;;;;3.40;2.03;;;;;;;;;;346355;28;1084;-70
2021/06/22 01:16:19;;;;;;;3.40;2.10;;;;;;;;;;346402;28;1258;-70
2021/06/22 01:16:31;;;;;;;3.13;2.08;;;;;;;;;;346343;28;1090;-70
2021/06/22 01:16:44;;;;;;;3.60;2.10;;;;;;;;;;346147;28;1219;-70
2021/06/22 01:16:56;;;;;;;3.05;2.00;;;;;;;;;;345737;28;2048;-69
2021/06/22 01:17:09;;;;;;;2.42;2.10;;;;;;;;;;345304;28;1096;-70
2021/06/22 01:17:21;;;;;;;3.13;2.13;;;;;;;;;;346320;28;1030;-70
2021/06/22 01:17:33;;;;;;;2.78;2.00;;;;;;;;;;345076;28;1366;-70
2021/06/22 01:17:45;;;;;;;2.58;1.85;;;;;;;;;;345231;28;1106;-68
2021/06/22 01:17:58;;;;;;;2.10;1.85;;;;;;;;;;345317;28;1119;-71